sensor_id;sensor_type;location;lat;lon;timestamp;temperature;humidity
3300;DHT22;1662;49.310;8.134;2024-01-16T00:00:34;0.40;99.90
3300;DHT22;1662;49.310;8.134;2024-01-16T00:03:00;0.40;99.90
3300;DHT22;1662;49.310;8.134;2024-01-16T00:05:28;0.40;99.90
3300;DHT22;1662;49.310;8.134;2024-01-16T00:07:53;0.40;99.90
3300;DHT22;1662;49.310;8.134;2024-01-16T00:10:19;0.40;99.90
3300;DHT22;1662;49.310;8.134;2024-01-16T00:12:44;0.40;99.90
3300;DHT22;1662;49.310;8.134;2024-01-16T00:15:10;0.40;99.90
3300;DHT22;1662;49.310;8.134;2024-01-16T00:17:36;0.40;99.90
3300;DHT22;1662;49.310;8.134;2024-01-16T00:20:04;0.40;99.90
3300;DHT22;1662;49.310;8.134;2024-01-16T00:22:30;0.40;99.90
3300;DHT22;1662;49.310;8.134;2024-01-16T00:24:56;0.40;99.90
3300;DHT22;1662;49.310;8.134;2024-01-16T00:27:21;0.40;99.90
3300;DHT22;1662;49.310;8.134;2024-01-16T00:29:47;0.40;99.90
3300;DHT22;1662;49.310;8.134;2024-01-16T00:32:13;0.40;99.90
3300;DHT22;1662;49.310;8.134;2024-01-16T00:34:44;0.30;99.90
3300;DHT22;1662;49.310;8.134;2024-01-16T00:37:10;0.30;99.90
3300;DHT22;1662;49.310;8.134;2024-01-16T00:39:36;0.30;99.90
3300;DHT22;1662;49.310;8.134;2024-01-16T00:42:02;0.30;99.90
3300;DHT22;1662;49.310;8.134;2024-01-16T00:44:28;0.30;99.90
3300;DHT22;1662;49.310;8.134;2024-01-16T00:46:56;0.30;99.90
3300;DHT22;1662;49.310;8.134;2024-01-16T00:49:22;0.30;99.90
3300;DHT22;1662;49.310;8.134;2024-01-16T00:51:47;0.30;99.90
3300;DHT22;1662;49.310;8.134;2024-01-16T00:54:13;0.20;99.90
3300;DHT22;1662;49.310;8.134;2024-01-16T00:56:41;0.30;99.90
3300;DHT22;1662;49.310;8.134;2024-01-16T00:59:07;0.30;99.90
3300;DHT22;1662;49.310;8.134;2024-01-16T01:01:32;0.30;99.90
3300;DHT22;1662;49.310;8.134;2024-01-16T01:03:58;0.30;99.90
3300;DHT22;1662;49.310;8.134;2024-01-16T01:06:23;0.30;99.90
3300;DHT22;1662;49.310;8.134;2024-01-16T01:08:49;0.20;99.90
3300;DHT22;1662;49.310;8.134;2024-01-16T01:11:14;0.20;99.90
3300;DHT22;1662;49.310;8.134;2024-01-16T01:13:40;0.20;99.90
3300;DHT22;1662;49.310;8.134;2024-01-16T01:16:06;0.20;99.90
3300;DHT22;1662;49.310;8.134;2024-01-16T01:18:31;0.10;99.90
3300;DHT22;1662;49.310;8.134;2024-01-16T01:20:57;0.20;99.90
3300;DHT22;1662;49.310;8.134;2024-01-16T01:23:22;0.20;99.90
3300;DHT22;1662;49.310;8.134;2024-01-16T01:25:48;0.20;99.90
3300;DHT22;1662;49.310;8.134;2024-01-16T01:28:14;0.10;99.90
3300;DHT22;1662;49.310;8.134;2024-01-16T01:30:39;0.10;99.90
3300;DHT22;1662;49.310;8.134;2024-01-16T01:33:07;0.20;99.90
3300;DHT22;1662;49.310;8.134;2024-01-16T01:35:32;0.10;99.90
3300;DHT22;1662;49.310;8.134;2024-01-16T01:37:58;0.20;99.90
3300;DHT22;1662;49.310;8.134;2024-01-16T01:40:24;0.20;99.90
3300;DHT22;1662;49.310;8.134;2024-01-16T01:42:49;0.10;99.90
3300;DHT22;1662;49.310;8.134;2024-01-16T01:45:15;0.10;99.90
3300;DHT22;1662;49.310;8.134;2024-01-16T01:47:41;0.10;99.90
3300;DHT22;1662;49.310;8.134;2024-01-16T01:50:10;0.10;99.90
3300;DHT22;1662;49.310;8.134;2024-01-16T01:52:40;0.10;99.90
3300;DHT22;1662;49.310;8.134;2024-01-16T01:55:10;0.10;99.90
3300;DHT22;1662;49.310;8.134;2024-01-16T01:57:36;0.10;99.90
3300;DHT22;1662;49.310;8.134;2024-01-16T02:00:02;0.10;99.90
3300;DHT22;1662;49.310;8.134;2024-01-16T02:02:29;0.10;99.90
3300;DHT22;1662;49.310;8.134;2024-01-16T02:04:55;0.10;99.90
3300;DHT22;1662;49.310;8.134;2024-01-16T02:07:21;0.10;99.90
3300;DHT22;1662;49.310;8.134;2024-01-16T02:09:47;0.10;99.90
3300;DHT22;1662;49.310;8.134;2024-01-16T02:12:12;0.10;99.90
3300;DHT22;1662;49.310;8.134;2024-01-16T02:14:38;0.10;99.90
3300;DHT22;1662;49.310;8.134;2024-01-16T02:17:04;0.10;99.90
3300;DHT22;1662;49.310;8.134;2024-01-16T02:19:32;0.10;99.90
3300;DHT22;1662;49.310;8.134;2024-01-16T02:22:00;0.10;99.90
3300;DHT22;1662;49.310;8.134;2024-01-16T02:24:28;0.00;99.90
3300;DHT22;1662;49.310;8.134;2024-01-16T02:26:53;0.00;99.90
3300;DHT22;1662;49.310;8.134;2024-01-16T02:29:19;0.00;99.90
3300;DHT22;1662;49.310;8.134;2024-01-16T02:31:45;0.00;99.90
3300;DHT22;1662;49.310;8.134;2024-01-16T02:34:10;-0.10;99.90
3300;DHT22;1662;49.310;8.134;2024-01-16T02:36:36;0.00;99.90
3300;DHT22;1662;49.310;8.134;2024-01-16T02:39:02;-0.10;99.90
3300;DHT22;1662;49.310;8.134;2024-01-16T02:41:28;0.00;99.90
3300;DHT22;1662;49.310;8.134;2024-01-16T02:43:54;-0.10;99.90
3300;DHT22;1662;49.310;8.134;2024-01-16T02:46:19;0.00;99.90
3300;DHT22;1662;49.310;8.134;2024-01-16T02:48:45;0.00;99.90
3300;DHT22;1662;49.310;8.134;2024-01-16T02:51:11;0.00;99.90
3300;DHT22;1662;49.310;8.134;2024-01-16T02:53:41;0.10;99.90
3300;DHT22;1662;49.310;8.134;2024-01-16T02:56:08;0.10;99.90
3300;DHT22;1662;49.310;8.134;2024-01-16T02:58:33;0.10;99.90
3300;DHT22;1662;49.310;8.134;2024-01-16T03:00:59;0.10;99.90
3300;DHT22;1662;49.310;8.134;2024-01-16T03:03:26;0.10;99.90
3300;DHT22;1662;49.310;8.134;2024-01-16T03:05:55;0.10;99.90
3300;DHT22;1662;49.310;8.134;2024-01-16T03:08:21;0.20;99.90
3300;DHT22;1662;49.310;8.134;2024-01-16T03:10:47;0.20;99.90
3300;DHT22;1662;49.310;8.134;2024-01-16T03:13:12;0.20;99.90
3300;DHT22;1662;49.310;8.134;2024-01-16T03:15:39;0.20;99.90
3300;DHT22;1662;49.310;8.134;2024-01-16T03:18:09;0.20;99.90
3300;DHT22;1662;49.310;8.134;2024-01-16T03:20:34;0.20;99.90
3300;DHT22;1662;49.310;8.134;2024-01-16T03:23:00;0.20;99.90
3300;DHT22;1662;49.310;8.134;2024-01-16T03:25:26;0.20;99.90
3300;DHT22;1662;49.310;8.134;2024-01-16T03:27:51;0.20;99.90
3300;DHT22;1662;49.310;8.134;2024-01-16T03:30:17;0.20;99.90
3300;DHT22;1662;49.310;8.134;2024-01-16T03:32:42;0.20;99.90
3300;DHT22;1662;49.310;8.134;2024-01-16T03:35:10;0.20;99.90
3300;DHT22;1662;49.310;8.134;2024-01-16T03:37:38;0.20;99.90
3300;DHT22;1662;49.310;8.134;2024-01-16T03:40:04;0.20;99.90
3300;DHT22;1662;49.310;8.134;2024-01-16T03:42:30;0.20;99.90
3300;DHT22;1662;49.310;8.134;2024-01-16T03:44:55;0.10;99.90
3300;DHT22;1662;49.310;8.134;2024-01-16T03:47:21;0.00;99.90
3300;DHT22;1662;49.310;8.134;2024-01-16T03:49:46;-0.10;99.90
3300;DHT22;1662;49.310;8.134;2024-01-16T03:52:14;-0.20;99.90
3300;DHT22;1662;49.310;8.134;2024-01-16T03:54:40;-0.30;99.90
3300;DHT22;1662;49.310;8.134;2024-01-16T03:57:05;-0.30;99.90
3300;DHT22;1662;49.310;8.134;2024-01-16T03:59:31;-0.40;99.90
3300;DHT22;1662;49.310;8.134;2024-01-16T04:01:56;-0.40;99.90
3300;DHT22;1662;49.310;8.134;2024-01-16T04:04:22;-0.40;99.90
3300;DHT22;1662;49.310;8.134;2024-01-16T04:06:48;-0.40;99.90
3300;DHT22;1662;49.310;8.134;2024-01-16T04:09:14;-0.40;99.90
3300;DHT22;1662;49.310;8.134;2024-01-16T04:11:40;-0.40;99.90
3300;DHT22;1662;49.310;8.134;2024-01-16T04:14:05;-0.40;99.90
3300;DHT22;1662;49.310;8.134;2024-01-16T04:16:33;-0.40;99.90
3300;DHT22;1662;49.310;8.134;2024-01-16T04:18:59;-0.40;99.90
3300;DHT22;1662;49.310;8.134;2024-01-16T04:21:25;-0.50;99.90
3300;DHT22;1662;49.310;8.134;2024-01-16T04:23:50;-0.50;99.90
3300;DHT22;1662;49.310;8.134;2024-01-16T04:26:16;-0.50;99.90
3300;DHT22;1662;49.310;8.134;2024-01-16T04:28:41;-0.60;99.90
3300;DHT22;1662;49.310;8.134;2024-01-16T04:31:08;-0.70;99.90
3300;DHT22;1662;49.310;8.134;2024-01-16T04:33:34;-0.70;99.90
3300;DHT22;1662;49.310;8.134;2024-01-16T04:35:59;-0.80;99.90
3300;DHT22;1662;49.310;8.134;2024-01-16T04:38:25;-0.80;99.90
3300;DHT22;1662;49.310;8.134;2024-01-16T04:40:50;-0.90;99.90
3300;DHT22;1662;49.310;8.134;2024-01-16T04:43:16;-0.90;99.90
3300;DHT22;1662;49.310;8.134;2024-01-16T04:45:41;-0.90;99.90
3300;DHT22;1662;49.310;8.134;2024-01-16T04:48:07;-1.00;99.90
3300;DHT22;1662;49.310;8.134;2024-01-16T04:50:36;-1.00;99.90
3300;DHT22;1662;49.310;8.134;2024-01-16T04:53:01;-1.00;99.90
3300;DHT22;1662;49.310;8.134;2024-01-16T04:55:28;-0.90;99.90
3300;DHT22;1662;49.310;8.134;2024-01-16T04:57:55;-0.90;99.90
3300;DHT22;1662;49.310;8.134;2024-01-16T05:00:25;-0.90;99.90
3300;DHT22;1662;49.310;8.134;2024-01-16T05:02:51;-1.00;99.90
3300;DHT22;1662;49.310;8.134;2024-01-16T05:05:16;-1.00;99.90
3300;DHT22;1662;49.310;8.134;2024-01-16T05:07:42;-1.00;99.90
3300;DHT22;1662;49.310;8.134;2024-01-16T05:10:11;-1.10;99.90
3300;DHT22;1662;49.310;8.134;2024-01-16T05:12:41;-1.10;99.90
3300;DHT22;1662;49.310;8.134;2024-01-16T05:15:07;-1.10;99.90
3300;DHT22;1662;49.310;8.134;2024-01-16T05:17:33;-1.10;99.90
3300;DHT22;1662;49.310;8.134;2024-01-16T05:19:59;-1.20;99.90
3300;DHT22;1662;49.310;8.134;2024-01-16T05:22:27;-1.20;99.90
3300;DHT22;1662;49.310;8.134;2024-01-16T05:24:52;-1.20;99.90
3300;DHT22;1662;49.310;8.134;2024-01-16T05:27:19;-1.20;99.90
3300;DHT22;1662;49.310;8.134;2024-01-16T05:29:44;-1.20;99.90
3300;DHT22;1662;49.310;8.134;2024-01-16T05:32:10;-1.20;99.90
3300;DHT22;1662;49.310;8.134;2024-01-16T05:34:36;-1.20;99.90
3300;DHT22;1662;49.310;8.134;2024-01-16T05:37:01;-1.20;99.90
3300;DHT22;1662;49.310;8.134;2024-01-16T05:39:27;-1.20;99.90
3300;DHT22;1662;49.310;8.134;2024-01-16T05:41:52;-1.30;99.90
3300;DHT22;1662;49.310;8.134;2024-01-16T05:44:18;-1.30;99.90
3300;DHT22;1662;49.310;8.134;2024-01-16T05:46:44;-1.30;99.90
3300;DHT22;1662;49.310;8.134;2024-01-16T05:49:09;-1.40;99.90
3300;DHT22;1662;49.310;8.134;2024-01-16T05:51:35;-1.40;99.90
3300;DHT22;1662;49.310;8.134;2024-01-16T05:54:02;-1.40;99.90
3300;DHT22;1662;49.310;8.134;2024-01-16T05:56:29;-1.30;99.90
3300;DHT22;1662;49.310;8.134;2024-01-16T05:58:54;-1.40;99.90
3300;DHT22;1662;49.310;8.134;2024-01-16T06:01:20;-1.40;99.90
3300;DHT22;1662;49.310;8.134;2024-01-16T06:03:45;-1.40;99.90
3300;DHT22;1662;49.310;8.134;2024-01-16T06:06:14;-1.40;99.90
3300;DHT22;1662;49.310;8.134;2024-01-16T06:08:39;-1.40;99.90
3300;DHT22;1662;49.310;8.134;2024-01-16T06:11:05;-1.30;99.90
3300;DHT22;1662;49.310;8.134;2024-01-16T06:13:30;-1.30;99.90
3300;DHT22;1662;49.310;8.134;2024-01-16T06:15:57;-1.30;99.90
3300;DHT22;1662;49.310;8.134;2024-01-16T06:18:23;-1.30;99.90
3300;DHT22;1662;49.310;8.134;2024-01-16T06:20:48;-1.20;99.90
3300;DHT22;1662;49.310;8.134;2024-01-16T06:23:14;-1.20;99.90
3300;DHT22;1662;49.310;8.134;2024-01-16T06:25:39;-1.30;99.90
3300;DHT22;1662;49.310;8.134;2024-01-16T06:28:07;-1.30;99.90
3300;DHT22;1662;49.310;8.134;2024-01-16T06:30:33;-1.30;99.90
3300;DHT22;1662;49.310;8.134;2024-01-16T06:32:59;-1.30;99.90
3300;DHT22;1662;49.310;8.134;2024-01-16T06:35:25;-1.30;99.90
3300;DHT22;1662;49.310;8.134;2024-01-16T06:37:51;-1.30;99.90
3300;DHT22;1662;49.310;8.134;2024-01-16T06:40:16;-1.30;99.90
3300;DHT22;1662;49.310;8.134;2024-01-16T06:42:42;-1.40;99.90
3300;DHT22;1662;49.310;8.134;2024-01-16T06:45:07;-1.00;99.90
3300;DHT22;1662;49.310;8.134;2024-01-16T06:47:33;-0.90;99.90
3300;DHT22;1662;49.310;8.134;2024-01-16T06:49:59;-1.00;99.90
3300;DHT22;1662;49.310;8.134;2024-01-16T06:52:24;-1.00;99.90
3300;DHT22;1662;49.310;8.134;2024-01-16T06:54:50;-1.00;99.90
3300;DHT22;1662;49.310;8.134;2024-01-16T06:57:16;-1.10;99.90
3300;DHT22;1662;49.310;8.134;2024-01-16T06:59:41;-1.10;99.90
3300;DHT22;1662;49.310;8.134;2024-01-16T07:02:07;-1.20;99.90
3300;DHT22;1662;49.310;8.134;2024-01-16T07:04:33;-1.20;99.90
3300;DHT22;1662;49.310;8.134;2024-01-16T07:06:59;-1.20;99.90
3300;DHT22;1662;49.310;8.134;2024-01-16T07:09:25;-1.30;99.90
3300;DHT22;1662;49.310;8.134;2024-01-16T07:11:52;-1.30;99.90
3300;DHT22;1662;49.310;8.134;2024-01-16T07:14:18;-1.30;99.90
3300;DHT22;1662;49.310;8.134;2024-01-16T07:16:45;-1.30;99.90
3300;DHT22;1662;49.310;8.134;2024-01-16T07:19:10;-1.30;99.90
3300;DHT22;1662;49.310;8.134;2024-01-16T07:21:38;-1.20;99.90
3300;DHT22;1662;49.310;8.134;2024-01-16T07:24:04;-1.10;99.90
3300;DHT22;1662;49.310;8.134;2024-01-16T07:26:30;-1.10;99.90
3300;DHT22;1662;49.310;8.134;2024-01-16T07:28:55;-1.00;99.90
3300;DHT22;1662;49.310;8.134;2024-01-16T07:31:21;-0.90;99.90
3300;DHT22;1662;49.310;8.134;2024-01-16T07:33:47;-0.90;99.90
3300;DHT22;1662;49.310;8.134;2024-01-16T07:36:14;-0.90;99.90
3300;DHT22;1662;49.310;8.134;2024-01-16T07:38:40;-0.90;99.90
3300;DHT22;1662;49.310;8.134;2024-01-16T07:41:06;-0.90;99.90
3300;DHT22;1662;49.310;8.134;2024-01-16T07:43:32;-0.90;99.90
3300;DHT22;1662;49.310;8.134;2024-01-16T07:45:58;-0.90;99.90
3300;DHT22;1662;49.310;8.134;2024-01-16T07:48:23;-0.90;99.90
3300;DHT22;1662;49.310;8.134;2024-01-16T07:50:51;-0.60;99.90
3300;DHT22;1662;49.310;8.134;2024-01-16T07:53:17;-0.50;99.90
3300;DHT22;1662;49.310;8.134;2024-01-16T07:55:43;-0.40;99.90
3300;DHT22;1662;49.310;8.134;2024-01-16T07:58:13;-0.50;99.90
3300;DHT22;1662;49.310;8.134;2024-01-16T08:00:42;-0.50;99.90
3300;DHT22;1662;49.310;8.134;2024-01-16T08:03:08;-0.60;99.90
3300;DHT22;1662;49.310;8.134;2024-01-16T08:05:37;-0.60;99.90
3300;DHT22;1662;49.310;8.134;2024-01-16T08:08:03;-0.50;99.90
3300;DHT22;1662;49.310;8.134;2024-01-16T08:10:28;-0.50;99.90
3300;DHT22;1662;49.310;8.134;2024-01-16T08:12:54;-0.50;99.90
3300;DHT22;1662;49.310;8.134;2024-01-16T08:15:19;-0.50;99.90
3300;DHT22;1662;49.310;8.134;2024-01-16T08:17:45;-0.50;99.90
3300;DHT22;1662;49.310;8.134;2024-01-16T08:20:11;-0.50;99.90
3300;DHT22;1662;49.310;8.134;2024-01-16T08:22:37;-0.50;99.90
3300;DHT22;1662;49.310;8.134;2024-01-16T08:25:03;-0.50;99.90
3300;DHT22;1662;49.310;8.134;2024-01-16T08:27:32;-0.40;99.90
3300;DHT22;1662;49.310;8.134;2024-01-16T08:29:58;-0.40;99.90
3300;DHT22;1662;49.310;8.134;2024-01-16T08:32:26;-0.50;99.90
3300;DHT22;1662;49.310;8.134;2024-01-16T08:34:52;-0.40;99.90
3300;DHT22;1662;49.310;8.134;2024-01-16T08:37:17;-0.40;99.90
3300;DHT22;1662;49.310;8.134;2024-01-16T08:39:43;-0.40;99.90
3300;DHT22;1662;49.310;8.134;2024-01-16T08:42:09;-0.40;99.90
3300;DHT22;1662;49.310;8.134;2024-01-16T08:44:38;-0.40;99.90
3300;DHT22;1662;49.310;8.134;2024-01-16T08:47:04;-0.40;99.90
3300;DHT22;1662;49.310;8.134;2024-01-16T08:49:31;-0.30;99.90
3300;DHT22;1662;49.310;8.134;2024-01-16T08:51:57;-0.30;99.90
3300;DHT22;1662;49.310;8.134;2024-01-16T08:54:24;-0.30;99.90
3300;DHT22;1662;49.310;8.134;2024-01-16T08:56:51;-0.20;99.90
3300;DHT22;1662;49.310;8.134;2024-01-16T08:59:16;-0.20;99.90
3300;DHT22;1662;49.310;8.134;2024-01-16T09:01:42;-0.10;99.90
3300;DHT22;1662;49.310;8.134;2024-01-16T09:04:08;-0.10;99.90
3300;DHT22;1662;49.310;8.134;2024-01-16T09:06:33;0.00;99.90
3300;DHT22;1662;49.310;8.134;2024-01-16T09:09:01;0.00;99.90
3300;DHT22;1662;49.310;8.134;2024-01-16T09:11:29;0.00;99.90
3300;DHT22;1662;49.310;8.134;2024-01-16T09:13:55;0.10;99.90
3300;DHT22;1662;49.310;8.134;2024-01-16T09:16:23;0.10;99.90
3300;DHT22;1662;49.310;8.134;2024-01-16T09:18:48;0.40;99.90
3300;DHT22;1662;49.310;8.134;2024-01-16T09:21:14;0.90;99.90
3300;DHT22;1662;49.310;8.134;2024-01-16T09:23:40;0.90;99.90
3300;DHT22;1662;49.310;8.134;2024-01-16T09:26:05;0.80;99.90
3300;DHT22;1662;49.310;8.134;2024-01-16T09:28:31;0.70;99.90
3300;DHT22;1662;49.310;8.134;2024-01-16T09:30:57;0.70;99.90
3300;DHT22;1662;49.310;8.134;2024-01-16T09:33:23;0.60;99.90
3300;DHT22;1662;49.310;8.134;2024-01-16T09:35:50;0.60;99.90
3300;DHT22;1662;49.310;8.134;2024-01-16T09:38:16;0.60;99.90
3300;DHT22;1662;49.310;8.134;2024-01-16T09:40:42;0.60;99.90
3300;DHT22;1662;49.310;8.134;2024-01-16T09:43:07;0.60;99.90
3300;DHT22;1662;49.310;8.134;2024-01-16T09:45:37;0.60;99.90
3300;DHT22;1662;49.310;8.134;2024-01-16T09:48:04;0.70;99.90
3300;DHT22;1662;49.310;8.134;2024-01-16T09:50:32;0.70;99.90
3300;DHT22;1662;49.310;8.134;2024-01-16T09:52:57;0.80;99.90
3300;DHT22;1662;49.310;8.134;2024-01-16T09:55:23;0.80;99.90
3300;DHT22;1662;49.310;8.134;2024-01-16T09:57:52;0.90;99.90
3300;DHT22;1662;49.310;8.134;2024-01-16T10:00:19;0.90;99.90
3300;DHT22;1662;49.310;8.134;2024-01-16T10:02:45;0.90;99.90
3300;DHT22;1662;49.310;8.134;2024-01-16T10:05:11;0.90;99.90
3300;DHT22;1662;49.310;8.134;2024-01-16T10:07:41;0.90;99.90
3300;DHT22;1662;49.310;8.134;2024-01-16T10:10:10;0.90;99.90
3300;DHT22;1662;49.310;8.134;2024-01-16T10:12:37;0.90;99.90
3300;DHT22;1662;49.310;8.134;2024-01-16T10:15:06;0.90;99.90
3300;DHT22;1662;49.310;8.134;2024-01-16T10:17:38;0.90;99.90
3300;DHT22;1662;49.310;8.134;2024-01-16T10:20:04;0.90;99.90
3300;DHT22;1662;49.310;8.134;2024-01-16T10:22:30;0.90;99.90
3300;DHT22;1662;49.310;8.134;2024-01-16T10:25:09;0.90;99.90
3300;DHT22;1662;49.310;8.134;2024-01-16T10:27:38;0.90;99.90
3300;DHT22;1662;49.310;8.134;2024-01-16T10:30:04;1.00;99.90
3300;DHT22;1662;49.310;8.134;2024-01-16T10:32:33;1.00;99.90
3300;DHT22;1662;49.310;8.134;2024-01-16T10:35:09;1.10;99.90
3300;DHT22;1662;49.310;8.134;2024-01-16T10:37:56;1.20;99.90
3300;DHT22;1662;49.310;8.134;2024-01-16T10:40:23;1.30;99.90
3300;DHT22;1662;49.310;8.134;2024-01-16T10:45:23;1.50;99.90
3300;DHT22;1662;49.310;8.134;2024-01-16T10:48:05;1.70;99.90
3300;DHT22;1662;49.310;8.134;2024-01-16T10:50:36;1.70;99.90
3300;DHT22;1662;49.310;8.134;2024-01-16T10:53:06;1.70;99.90
3300;DHT22;1662;49.310;8.134;2024-01-16T10:58:09;1.80;99.90
3300;DHT22;1662;49.310;8.134;2024-01-16T11:00:36;1.80;99.90
3300;DHT22;1662;49.310;8.134;2024-01-16T11:03:07;1.80;99.90
3300;DHT22;1662;49.310;8.134;2024-01-16T11:05:35;1.70;99.90
3300;DHT22;1662;49.310;8.134;2024-01-16T11:08:03;1.60;99.90
3300;DHT22;1662;49.310;8.134;2024-01-16T11:10:32;1.60;99.90
3300;DHT22;1662;49.310;8.134;2024-01-16T11:13:01;1.60;99.90
3300;DHT22;1662;49.310;8.134;2024-01-16T11:15:28;1.50;99.90
3300;DHT22;1662;49.310;8.134;2024-01-16T11:17:55;1.60;99.90
3300;DHT22;1662;49.310;8.134;2024-01-16T11:20:21;1.60;99.90
3300;DHT22;1662;49.310;8.134;2024-01-16T11:22:49;1.60;99.90
3300;DHT22;1662;49.310;8.134;2024-01-16T11:25:16;1.60;99.90
3300;DHT22;1662;49.310;8.134;2024-01-16T11:27:44;1.60;99.90
3300;DHT22;1662;49.310;8.134;2024-01-16T11:30:11;1.70;99.90
3300;DHT22;1662;49.310;8.134;2024-01-16T11:32:38;1.70;99.90
3300;DHT22;1662;49.310;8.134;2024-01-16T11:35:10;1.70;99.90
3300;DHT22;1662;49.310;8.134;2024-01-16T11:37:40;1.70;99.90
3300;DHT22;1662;49.310;8.134;2024-01-16T11:42:56;1.90;99.90
3300;DHT22;1662;49.310;8.134;2024-01-16T11:48:11;2.10;99.90
3300;DHT22;1662;49.310;8.134;2024-01-16T11:50:37;2.20;99.90
3300;DHT22;1662;49.310;8.134;2024-01-16T11:53:03;2.20;99.90
3300;DHT22;1662;49.310;8.134;2024-01-16T11:58:33;2.40;99.90
3300;DHT22;1662;49.310;8.134;2024-01-16T12:01:04;2.50;99.90
3300;DHT22;1662;49.310;8.134;2024-01-16T12:03:30;2.50;99.90
3300;DHT22;1662;49.310;8.134;2024-01-16T12:06:00;2.60;99.90
3300;DHT22;1662;49.310;8.134;2024-01-16T12:08:26;2.70;99.90
3300;DHT22;1662;49.310;8.134;2024-01-16T12:10:51;2.90;99.90
3300;DHT22;1662;49.310;8.134;2024-01-16T12:13:17;3.00;99.90
3300;DHT22;1662;49.310;8.134;2024-01-16T12:15:43;4.20;99.90
3300;DHT22;1662;49.310;8.134;2024-01-16T12:18:09;4.90;99.90
3300;DHT22;1662;49.310;8.134;2024-01-16T12:20:38;5.00;99.90
3300;DHT22;1662;49.310;8.134;2024-01-16T12:23:08;4.80;99.90
3300;DHT22;1662;49.310;8.134;2024-01-16T12:25:36;4.70;99.90
3300;DHT22;1662;49.310;8.134;2024-01-16T12:28:06;4.70;99.90
3300;DHT22;1662;49.310;8.134;2024-01-16T12:30:34;4.80;99.90
3300;DHT22;1662;49.310;8.134;2024-01-16T12:33:09;4.90;99.90
3300;DHT22;1662;49.310;8.134;2024-01-16T12:35:44;4.90;99.90
3300;DHT22;1662;49.310;8.134;2024-01-16T12:38:11;5.10;99.90
3300;DHT22;1662;49.310;8.134;2024-01-16T12:40:41;5.20;99.90
3300;DHT22;1662;49.310;8.134;2024-01-16T12:43:08;5.30;99.90
3300;DHT22;1662;49.310;8.134;2024-01-16T12:45:34;5.30;99.90
3300;DHT22;1662;49.310;8.134;2024-01-16T12:48:04;5.30;99.90
3300;DHT22;1662;49.310;8.134;2024-01-16T12:50:31;5.30;99.90
3300;DHT22;1662;49.310;8.134;2024-01-16T12:53:04;5.30;99.90
3300;DHT22;1662;49.310;8.134;2024-01-16T12:55:31;5.40;99.90
3300;DHT22;1662;49.310;8.134;2024-01-16T12:58:17;5.40;99.90
3300;DHT22;1662;49.310;8.134;2024-01-16T13:00:48;5.50;99.90
3300;DHT22;1662;49.310;8.134;2024-01-16T13:03:18;5.50;99.90
3300;DHT22;1662;49.310;8.134;2024-01-16T13:05:54;5.40;99.90
3300;DHT22;1662;49.310;8.134;2024-01-16T13:08:19;5.40;99.90
3300;DHT22;1662;49.310;8.134;2024-01-16T13:11:02;5.50;99.90
3300;DHT22;1662;49.310;8.134;2024-01-16T13:13:29;5.60;99.90
3300;DHT22;1662;49.310;8.134;2024-01-16T13:15:55;5.60;99.90
3300;DHT22;1662;49.310;8.134;2024-01-16T13:18:23;5.60;99.90
3300;DHT22;1662;49.310;8.134;2024-01-16T13:20:51;5.60;99.90
3300;DHT22;1662;49.310;8.134;2024-01-16T13:23:17;5.60;99.90
3300;DHT22;1662;49.310;8.134;2024-01-16T13:25:43;5.50;99.90
3300;DHT22;1662;49.310;8.134;2024-01-16T13:28:16;5.50;99.90
3300;DHT22;1662;49.310;8.134;2024-01-16T13:30:42;5.60;99.90
3300;DHT22;1662;49.310;8.134;2024-01-16T13:33:08;5.70;99.90
3300;DHT22;1662;49.310;8.134;2024-01-16T13:35:35;5.70;99.90
3300;DHT22;1662;49.310;8.134;2024-01-16T13:38:05;5.70;99.90
3300;DHT22;1662;49.310;8.134;2024-01-16T13:40:31;5.60;99.90
3300;DHT22;1662;49.310;8.134;2024-01-16T13:42:57;5.60;99.90
3300;DHT22;1662;49.310;8.134;2024-01-16T13:45:23;5.50;99.90
3300;DHT22;1662;49.310;8.134;2024-01-16T13:47:49;5.60;99.90
3300;DHT22;1662;49.310;8.134;2024-01-16T13:50:14;5.60;99.90
3300;DHT22;1662;49.310;8.134;2024-01-16T13:52:40;5.60;99.90
3300;DHT22;1662;49.310;8.134;2024-01-16T13:55:06;5.50;99.90
3300;DHT22;1662;49.310;8.134;2024-01-16T13:57:33;5.50;99.90
3300;DHT22;1662;49.310;8.134;2024-01-16T14:00:06;5.70;99.90
3300;DHT22;1662;49.310;8.134;2024-01-16T14:02:33;5.60;99.90
3300;DHT22;1662;49.310;8.134;2024-01-16T14:05:02;5.50;99.90
3300;DHT22;1662;49.310;8.134;2024-01-16T14:07:28;5.40;99.90
3300;DHT22;1662;49.310;8.134;2024-01-16T14:09:54;5.50;99.90
3300;DHT22;1662;49.310;8.134;2024-01-16T14:12:19;5.80;99.90
3300;DHT22;1662;49.310;8.134;2024-01-16T14:14:45;6.10;99.90
3300;DHT22;1662;49.310;8.134;2024-01-16T14:17:12;6.30;99.90
3300;DHT22;1662;49.310;8.134;2024-01-16T14:19:40;6.30;99.90
3300;DHT22;1662;49.310;8.134;2024-01-16T14:22:06;6.30;99.90
3300;DHT22;1662;49.310;8.134;2024-01-16T14:24:32;6.20;99.90
3300;DHT22;1662;49.310;8.134;2024-01-16T14:26:58;6.20;99.90
3300;DHT22;1662;49.310;8.134;2024-01-16T14:29:23;6.20;99.90
3300;DHT22;1662;49.310;8.134;2024-01-16T14:31:49;6.20;99.90
3300;DHT22;1662;49.310;8.134;2024-01-16T14:34:15;6.10;99.90
3300;DHT22;1662;49.310;8.134;2024-01-16T14:36:41;5.90;99.90
3300;DHT22;1662;49.310;8.134;2024-01-16T14:39:07;5.70;99.90
3300;DHT22;1662;49.310;8.134;2024-01-16T14:41:39;5.40;99.90
3300;DHT22;1662;49.310;8.134;2024-01-16T14:44:05;5.00;99.90
3300;DHT22;1662;49.310;8.134;2024-01-16T14:46:31;4.70;99.90
3300;DHT22;1662;49.310;8.134;2024-01-16T14:48:58;4.50;99.90
3300;DHT22;1662;49.310;8.134;2024-01-16T14:51:24;4.40;99.90
3300;DHT22;1662;49.310;8.134;2024-01-16T14:53:53;4.40;99.90
3300;DHT22;1662;49.310;8.134;2024-01-16T14:56:18;4.40;99.90
3300;DHT22;1662;49.310;8.134;2024-01-16T14:58:45;4.30;99.90
3300;DHT22;1662;49.310;8.134;2024-01-16T15:01:11;4.20;99.90
3300;DHT22;1662;49.310;8.134;2024-01-16T15:03:36;4.20;99.90
3300;DHT22;1662;49.310;8.134;2024-01-16T15:06:02;4.10;99.90
3300;DHT22;1662;49.310;8.134;2024-01-16T15:08:30;4.00;99.90
3300;DHT22;1662;49.310;8.134;2024-01-16T15:10:57;3.90;99.90
3300;DHT22;1662;49.310;8.134;2024-01-16T15:13:25;3.90;99.90
3300;DHT22;1662;49.310;8.134;2024-01-16T15:15:51;3.80;99.90
3300;DHT22;1662;49.310;8.134;2024-01-16T15:18:19;3.80;99.90
3300;DHT22;1662;49.310;8.134;2024-01-16T15:20:45;3.70;99.90
3300;DHT22;1662;49.310;8.134;2024-01-16T15:23:11;3.60;99.90
3300;DHT22;1662;49.310;8.134;2024-01-16T15:25:37;3.50;99.90
3300;DHT22;1662;49.310;8.134;2024-01-16T15:28:03;3.40;99.90
3300;DHT22;1662;49.310;8.134;2024-01-16T15:30:29;3.40;99.90
3300;DHT22;1662;49.310;8.134;2024-01-16T15:32:58;3.40;99.90
3300;DHT22;1662;49.310;8.134;2024-01-16T15:35:24;3.40;99.90
3300;DHT22;1662;49.310;8.134;2024-01-16T15:37:50;3.40;99.90
3300;DHT22;1662;49.310;8.134;2024-01-16T15:40:18;3.30;99.90
3300;DHT22;1662;49.310;8.134;2024-01-16T15:42:44;3.20;99.90
3300;DHT22;1662;49.310;8.134;2024-01-16T15:45:10;3.20;99.90
3300;DHT22;1662;49.310;8.134;2024-01-16T15:47:36;3.20;99.90
3300;DHT22;1662;49.310;8.134;2024-01-16T15:50:02;3.20;99.90
3300;DHT22;1662;49.310;8.134;2024-01-16T15:52:30;3.10;99.90
3300;DHT22;1662;49.310;8.134;2024-01-16T15:54:55;3.00;99.90
3300;DHT22;1662;49.310;8.134;2024-01-16T15:57:22;2.90;99.90
3300;DHT22;1662;49.310;8.134;2024-01-16T15:59:47;2.80;99.90
3300;DHT22;1662;49.310;8.134;2024-01-16T16:02:13;2.70;99.90
3300;DHT22;1662;49.310;8.134;2024-01-16T16:04:39;2.60;99.90
3300;DHT22;1662;49.310;8.134;2024-01-16T16:07:06;2.40;99.90
3300;DHT22;1662;49.310;8.134;2024-01-16T16:09:32;2.30;99.90
3300;DHT22;1662;49.310;8.134;2024-01-16T16:11:59;2.30;99.90
3300;DHT22;1662;49.310;8.134;2024-01-16T16:14:28;2.20;99.90
3300;DHT22;1662;49.310;8.134;2024-01-16T16:16:53;2.10;99.90
3300;DHT22;1662;49.310;8.134;2024-01-16T16:19:19;2.00;99.90
3300;DHT22;1662;49.310;8.134;2024-01-16T16:21:45;2.00;99.90